sensor_id;sensor_type;location;lat;lon;timestamp;P1;durP1;ratioP1;P2;durP2;ratioP2
30818;SDS011;17546;42.674;23.284;2022-12-18T00:00:46;10.73;;;6.68;;
30818;SDS011;17546;42.674;23.284;2022-12-18T00:03:12;10.32;;;6.53;;
30818;SDS011;17546;42.674;23.284;2022-12-18T00:05:48;10.95;;;6.97;;
30818;SDS011;17546;42.674;23.284;2022-12-18T00:08:15;11.27;;;6.70;;
30818;SDS011;17546;42.674;23.284;2022-12-18T00:10:41;11.60;;;7.57;;
30818;SDS011;17546;42.674;23.284;2022-12-18T00:13:07;13.90;;;8.20;;
30818;SDS011;17546;42.674;23.284;2022-12-18T00:15:35;14.95;;;8.07;;
30818;SDS011;17546;42.674;23.284;2022-12-18T00:18:01;12.98;;;7.22;;
30818;SDS011;17546;42.674;23.284;2022-12-18T00:20:27;13.35;;;7.32;;
30818;SDS011;17546;42.674;23.284;2022-12-18T00:22:53;14.90;;;7.85;;
30818;SDS011;17546;42.674;23.284;2022-12-18T00:25:19;13.68;;;8.20;;
30818;SDS011;17546;42.674;23.284;2022-12-18T00:27:44;12.57;;;7.47;;
30818;SDS011;17546;42.674;23.284;2022-12-18T00:30:10;14.60;;;7.90;;
30818;SDS011;17546;42.674;23.284;2022-12-18T00:32:36;15.68;;;9.00;;
30818;SDS011;17546;42.674;23.284;2022-12-18T00:35:02;12.23;;;7.93;;
30818;SDS011;17546;42.674;23.284;2022-12-18T00:37:28;14.63;;;8.75;;
30818;SDS011;17546;42.674;23.284;2022-12-18T00:39:53;15.82;;;8.70;;
30818;SDS011;17546;42.674;23.284;2022-12-18T00:42:19;15.07;;;8.88;;
30818;SDS011;17546;42.674;23.284;2022-12-18T00:45:11;13.00;;;8.10;;
30818;SDS011;17546;42.674;23.284;2022-12-18T00:47:36;15.50;;;8.05;;
30818;SDS011;17546;42.674;23.284;2022-12-18T00:50:02;13.70;;;8.52;;
30818;SDS011;17546;42.674;23.284;2022-12-18T00:52:27;14.55;;;8.85;;
30818;SDS011;17546;42.674;23.284;2022-12-18T00:54:53;13.02;;;8.23;;
30818;SDS011;17546;42.674;23.284;2022-12-18T00:57:18;15.82;;;9.10;;
30818;SDS011;17546;42.674;23.284;2022-12-18T00:59:44;19.50;;;9.10;;
30818;SDS011;17546;42.674;23.284;2022-12-18T01:02:09;17.00;;;9.25;;
30818;SDS011;17546;42.674;23.284;2022-12-18T01:04:35;16.98;;;9.18;;
30818;SDS011;17546;42.674;23.284;2022-12-18T01:07:00;18.15;;;9.55;;
30818;SDS011;17546;42.674;23.284;2022-12-18T01:09:26;14.02;;;8.48;;
30818;SDS011;17546;42.674;23.284;2022-12-18T01:11:51;15.02;;;8.77;;
30818;SDS011;17546;42.674;23.284;2022-12-18T01:14:17;13.40;;;8.27;;
30818;SDS011;17546;42.674;23.284;2022-12-18T01:16:42;14.05;;;8.70;;
30818;SDS011;17546;42.674;23.284;2022-12-18T01:19:08;12.93;;;7.75;;
30818;SDS011;17546;42.674;23.284;2022-12-18T01:21:33;14.38;;;8.02;;
30818;SDS011;17546;42.674;23.284;2022-12-18T01:23:59;14.65;;;8.02;;
30818;SDS011;17546;42.674;23.284;2022-12-18T01:26:24;15.35;;;9.02;;
30818;SDS011;17546;42.674;23.284;2022-12-18T01:28:54;17.00;;;9.23;;
30818;SDS011;17546;42.674;23.284;2022-12-18T01:31:22;17.38;;;9.57;;
30818;SDS011;17546;42.674;23.284;2022-12-18T01:33:52;17.73;;;9.05;;
30818;SDS011;17546;42.674;23.284;2022-12-18T01:36:28;15.35;;;9.52;;
30818;SDS011;17546;42.674;23.284;2022-12-18T01:38:59;17.65;;;9.30;;
30818;SDS011;17546;42.674;23.284;2022-12-18T01:41:31;14.27;;;8.73;;
30818;SDS011;17546;42.674;23.284;2022-12-18T01:47:21;17.23;;;8.55;;
30818;SDS011;17546;42.674;23.284;2022-12-18T01:50:00;15.45;;;9.25;;
30818;SDS011;17546;42.674;23.284;2022-12-18T01:52:30;16.20;;;9.13;;
30818;SDS011;17546;42.674;23.284;2022-12-18T01:54:57;18.38;;;8.63;;
30818;SDS011;17546;42.674;23.284;2022-12-18T01:57:25;15.82;;;9.10;;
30818;SDS011;17546;42.674;23.284;2022-12-18T01:59:52;14.13;;;7.68;;
30818;SDS011;17546;42.674;23.284;2022-12-18T02:02:21;15.40;;;8.20;;
30818;SDS011;17546;42.674;23.284;2022-12-18T02:04:47;16.17;;;8.52;;
30818;SDS011;17546;42.674;23.284;2022-12-18T02:12:35;14.60;;;8.73;;
30818;SDS011;17546;42.674;23.284;2022-12-18T02:15:31;14.52;;;8.80;;
30818;SDS011;17546;42.674;23.284;2022-12-18T02:18:03;13.43;;;8.15;;
30818;SDS011;17546;42.674;23.284;2022-12-18T02:26:07;14.70;;;7.90;;
30818;SDS011;17546;42.674;23.284;2022-12-18T02:28:42;15.52;;;8.48;;
30818;SDS011;17546;42.674;23.284;2022-12-18T02:31:13;13.13;;;7.93;;
30818;SDS011;17546;42.674;23.284;2022-12-18T02:33:44;14.38;;;8.27;;
30818;SDS011;17546;42.674;23.284;2022-12-18T02:36:11;15.32;;;8.40;;
30818;SDS011;17546;42.674;23.284;2022-12-18T02:38:39;14.85;;;8.68;;
30818;SDS011;17546;42.674;23.284;2022-12-18T02:41:07;14.23;;;8.13;;
30818;SDS011;17546;42.674;23.284;2022-12-18T02:43:33;10.82;;;7.15;;
30818;SDS011;17546;42.674;23.284;2022-12-18T02:45:59;13.50;;;7.70;;
30818;SDS011;17546;42.674;23.284;2022-12-18T02:48:28;13.05;;;7.47;;
30818;SDS011;17546;42.674;23.284;2022-12-18T02:51:03;15.63;;;8.70;;
30818;SDS011;17546;42.674;23.284;2022-12-18T02:53:38;15.10;;;8.07;;
30818;SDS011;17546;42.674;23.284;2022-12-18T02:56:14;15.27;;;7.53;;
30818;SDS011;17546;42.674;23.284;2022-12-18T03:04:18;13.25;;;7.20;;
30818;SDS011;17546;42.674;23.284;2022-12-18T03:06:52;13.88;;;8.15;;
30818;SDS011;17546;42.674;23.284;2022-12-18T03:09:32;11.10;;;7.38;;
30818;SDS011;17546;42.674;23.284;2022-12-18T03:12:06;13.48;;;7.60;;
30818;SDS011;17546;42.674;23.284;2022-12-18T03:15:08;13.85;;;7.82;;
30818;SDS011;17546;42.674;23.284;2022-12-18T03:18:38;13.00;;;7.88;;
30818;SDS011;17546;42.674;23.284;2022-12-18T03:20:48;20.10;;;8.82;;
30818;SDS011;17546;42.674;23.284;2022-12-18T03:23:17;16.17;;;9.00;;
30818;SDS011;17546;42.674;23.284;2022-12-18T03:25:46;17.60;;;9.55;;
30818;SDS011;17546;42.674;23.284;2022-12-18T03:28:16;16.05;;;8.90;;
30818;SDS011;17546;42.674;23.284;2022-12-18T03:30:46;17.52;;;9.57;;
30818;SDS011;17546;42.674;23.284;2022-12-18T03:35:50;16.50;;;9.35;;
30818;SDS011;17546;42.674;23.284;2022-12-18T03:38:15;17.52;;;9.25;;
30818;SDS011;17546;42.674;23.284;2022-12-18T03:46:27;13.82;;;8.20;;
30818;SDS011;17546;42.674;23.284;2022-12-18T03:48:59;16.25;;;7.93;;
30818;SDS011;17546;42.674;23.284;2022-12-18T03:51:46;12.68;;;7.25;;
30818;SDS011;17546;42.674;23.284;2022-12-18T03:54:31;13.93;;;8.07;;
30818;SDS011;17546;42.674;23.284;2022-12-18T03:57:06;12.80;;;7.55;;
30818;SDS011;17546;42.674;23.284;2022-12-18T03:59:36;13.15;;;8.30;;
30818;SDS011;17546;42.674;23.284;2022-12-18T04:02:04;13.77;;;7.30;;
30818;SDS011;17546;42.674;23.284;2022-12-18T04:04:31;13.90;;;7.68;;
30818;SDS011;17546;42.674;23.284;2022-12-18T04:06:59;11.45;;;6.88;;
30818;SDS011;17546;42.674;23.284;2022-12-18T04:09:25;14.73;;;7.70;;
30818;SDS011;17546;42.674;23.284;2022-12-18T04:11:51;13.70;;;7.95;;
30818;SDS011;17546;42.674;23.284;2022-12-18T04:14:17;19.70;;;9.07;;
30818;SDS011;17546;42.674;23.284;2022-12-18T04:16:42;13.40;;;8.27;;
30818;SDS011;17546;42.674;23.284;2022-12-18T04:19:07;18.35;;;9.18;;
30818;SDS011;17546;42.674;23.284;2022-12-18T04:21:33;15.65;;;8.45;;
30818;SDS011;17546;42.674;23.284;2022-12-18T04:23:58;16.55;;;8.88;;
30818;SDS011;17546;42.674;23.284;2022-12-18T04:26:24;16.23;;;8.02;;
30818;SDS011;17546;42.674;23.284;2022-12-18T04:28:49;15.32;;;8.63;;
30818;SDS011;17546;42.674;23.284;2022-12-18T04:31:14;16.10;;;7.90;;
30818;SDS011;17546;42.674;23.284;2022-12-18T04:33:40;16.65;;;8.43;;
30818;SDS011;17546;42.674;23.284;2022-12-18T04:36:05;20.08;;;9.77;;
30818;SDS011;17546;42.674;23.284;2022-12-18T04:38:32;20.20;;;10.80;;
30818;SDS011;17546;42.674;23.284;2022-12-18T04:40:57;20.02;;;10.40;;
30818;SDS011;17546;42.674;23.284;2022-12-18T04:43:23;18.08;;;9.93;;
30818;SDS011;17546;42.674;23.284;2022-12-18T04:45:48;19.70;;;10.48;;
30818;SDS011;17546;42.674;23.284;2022-12-18T04:48:14;21.38;;;11.52;;
30818;SDS011;17546;42.674;23.284;2022-12-18T04:50:39;19.77;;;9.48;;
30818;SDS011;17546;42.674;23.284;2022-12-18T04:53:04;22.35;;;11.90;;
30818;SDS011;17546;42.674;23.284;2022-12-18T04:55:30;20.02;;;10.82;;
30818;SDS011;17546;42.674;23.284;2022-12-18T04:57:55;20.35;;;10.95;;
30818;SDS011;17546;42.674;23.284;2022-12-18T05:00:21;20.13;;;10.93;;
30818;SDS011;17546;42.674;23.284;2022-12-18T05:02:47;20.85;;;10.70;;
30818;SDS011;17546;42.674;23.284;2022-12-18T05:05:13;23.35;;;10.95;;
30818;SDS011;17546;42.674;23.284;2022-12-18T05:07:38;24.67;;;10.93;;
30818;SDS011;17546;42.674;23.284;2022-12-18T05:10:04;23.23;;;11.75;;
30818;SDS011;17546;42.674;23.284;2022-12-18T05:12:31;22.50;;;11.30;;
30818;SDS011;17546;42.674;23.284;2022-12-18T05:14:57;23.63;;;10.80;;
30818;SDS011;17546;42.674;23.284;2022-12-18T05:17:22;23.33;;;11.73;;
30818;SDS011;17546;42.674;23.284;2022-12-18T05:19:48;23.52;;;11.73;;
30818;SDS011;17546;42.674;23.284;2022-12-18T05:22:13;26.85;;;12.38;;
30818;SDS011;17546;42.674;23.284;2022-12-18T05:24:38;25.50;;;12.90;;
30818;SDS011;17546;42.674;23.284;2022-12-18T05:27:04;26.25;;;13.65;;
30818;SDS011;17546;42.674;23.284;2022-12-18T05:29:29;24.02;;;11.68;;
30818;SDS011;17546;42.674;23.284;2022-12-18T05:31:55;25.17;;;12.02;;
30818;SDS011;17546;42.674;23.284;2022-12-18T05:34:20;22.50;;;11.05;;
30818;SDS011;17546;42.674;23.284;2022-12-18T05:36:45;25.52;;;12.73;;
30818;SDS011;17546;42.674;23.284;2022-12-18T05:39:11;23.67;;;11.88;;
30818;SDS011;17546;42.674;23.284;2022-12-18T05:41:36;24.17;;;12.10;;
30818;SDS011;17546;42.674;23.284;2022-12-18T05:44:02;23.27;;;12.18;;
30818;SDS011;17546;42.674;23.284;2022-12-18T05:46:27;25.70;;;12.77;;
30818;SDS011;17546;42.674;23.284;2022-12-18T05:49:01;24.58;;;13.20;;
30818;SDS011;17546;42.674;23.284;2022-12-18T05:51:26;27.35;;;14.07;;
30818;SDS011;17546;42.674;23.284;2022-12-18T05:53:52;25.50;;;13.32;;
30818;SDS011;17546;42.674;23.284;2022-12-18T05:56:18;30.33;;;14.93;;
30818;SDS011;17546;42.674;23.284;2022-12-18T05:58:46;30.40;;;13.43;;
30818;SDS011;17546;42.674;23.284;2022-12-18T06:01:13;28.75;;;14.73;;
30818;SDS011;17546;42.674;23.284;2022-12-18T06:03:41;32.35;;;15.60;;
30818;SDS011;17546;42.674;23.284;2022-12-18T06:06:16;32.25;;;15.77;;
30818;SDS011;17546;42.674;23.284;2022-12-18T06:08:45;30.50;;;15.57;;
30818;SDS011;17546;42.674;23.284;2022-12-18T06:11:11;31.55;;;15.80;;
30818;SDS011;17546;42.674;23.284;2022-12-18T06:13:37;31.23;;;16.17;;
30818;SDS011;17546;42.674;23.284;2022-12-18T06:16:04;31.75;;;14.80;;
30818;SDS011;17546;42.674;23.284;2022-12-18T06:18:30;30.88;;;15.32;;
30818;SDS011;17546;42.674;23.284;2022-12-18T06:20:57;31.58;;;15.27;;
30818;SDS011;17546;42.674;23.284;2022-12-18T06:23:24;28.38;;;14.30;;
30818;SDS011;17546;42.674;23.284;2022-12-18T06:25:49;27.60;;;14.05;;
30818;SDS011;17546;42.674;23.284;2022-12-18T06:28:15;24.90;;;12.93;;
30818;SDS011;17546;42.674;23.284;2022-12-18T06:30:43;29.95;;;14.43;;
30818;SDS011;17546;42.674;23.284;2022-12-18T06:33:11;30.48;;;14.80;;
30818;SDS011;17546;42.674;23.284;2022-12-18T06:35:36;37.55;;;15.95;;
30818;SDS011;17546;42.674;23.284;2022-12-18T06:38:02;29.05;;;14.60;;
30818;SDS011;17546;42.674;23.284;2022-12-18T06:40:28;29.48;;;14.38;;
30818;SDS011;17546;42.674;23.284;2022-12-18T06:42:53;29.00;;;15.55;;
30818;SDS011;17546;42.674;23.284;2022-12-18T06:45:19;29.35;;;15.27;;
30818;SDS011;17546;42.674;23.284;2022-12-18T06:47:44;31.15;;;16.20;;
30818;SDS011;17546;42.674;23.284;2022-12-18T06:50:10;28.10;;;13.90;;
30818;SDS011;17546;42.674;23.284;2022-12-18T06:52:36;31.60;;;13.77;;
30818;SDS011;17546;42.674;23.284;2022-12-18T06:55:02;30.05;;;14.43;;
30818;SDS011;17546;42.674;23.284;2022-12-18T06:57:27;26.98;;;14.35;;
30818;SDS011;17546;42.674;23.284;2022-12-18T06:59:53;29.35;;;13.95;;
30818;SDS011;17546;42.674;23.284;2022-12-18T07:02:18;29.52;;;14.75;;
30818;SDS011;17546;42.674;23.284;2022-12-18T07:04:44;28.73;;;14.85;;
30818;SDS011;17546;42.674;23.284;2022-12-18T07:07:09;24.92;;;13.25;;
30818;SDS011;17546;42.674;23.284;2022-12-18T07:09:34;33.17;;;14.23;;
30818;SDS011;17546;42.674;23.284;2022-12-18T07:12:00;31.58;;;15.25;;
30818;SDS011;17546;42.674;23.284;2022-12-18T07:14:25;28.52;;;14.98;;
30818;SDS011;17546;42.674;23.284;2022-12-18T07:16:51;30.30;;;14.88;;
30818;SDS011;17546;42.674;23.284;2022-12-18T07:19:16;28.67;;;13.93;;
30818;SDS011;17546;42.674;23.284;2022-12-18T07:21:42;26.35;;;12.98;;
30818;SDS011;17546;42.674;23.284;2022-12-18T07:24:07;29.30;;;13.98;;
30818;SDS011;17546;42.674;23.284;2022-12-18T07:26:33;25.63;;;13.85;;
30818;SDS011;17546;42.674;23.284;2022-12-18T07:28:58;27.20;;;14.43;;
30818;SDS011;17546;42.674;23.284;2022-12-18T07:31:24;32.80;;;15.27;;
30818;SDS011;17546;42.674;23.284;2022-12-18T07:33:50;31.27;;;14.48;;
30818;SDS011;17546;42.674;23.284;2022-12-18T07:36:16;29.95;;;14.25;;
30818;SDS011;17546;42.674;23.284;2022-12-18T07:38:42;21.80;;;10.60;;
30818;SDS011;17546;42.674;23.284;2022-12-18T07:41:09;30.02;;;15.45;;
30818;SDS011;17546;42.674;23.284;2022-12-18T07:43:36;32.38;;;14.93;;
30818;SDS011;17546;42.674;23.284;2022-12-18T07:46:02;31.33;;;15.68;;
30818;SDS011;17546;42.674;23.284;2022-12-18T07:48:28;30.10;;;15.77;;
30818;SDS011;17546;42.674;23.284;2022-12-18T07:51:00;29.92;;;15.20;;
30818;SDS011;17546;42.674;23.284;2022-12-18T07:53:31;34.58;;;16.67;;
30818;SDS011;17546;42.674;23.284;2022-12-18T07:55:58;32.72;;;15.93;;
30818;SDS011;17546;42.674;23.284;2022-12-18T07:58:30;33.45;;;16.42;;
30818;SDS011;17546;42.674;23.284;2022-12-18T08:01:02;39.45;;;18.13;;
30818;SDS011;17546;42.674;23.284;2022-12-18T08:03:32;37.78;;;18.15;;
30818;SDS011;17546;42.674;23.284;2022-12-18T08:06:01;37.13;;;18.52;;
30818;SDS011;17546;42.674;23.284;2022-12-18T08:08:28;35.13;;;17.17;;
30818;SDS011;17546;42.674;23.284;2022-12-18T08:10:54;34.97;;;17.20;;
30818;SDS011;17546;42.674;23.284;2022-12-18T08:13:20;34.67;;;16.88;;
30818;SDS011;17546;42.674;23.284;2022-12-18T08:15:46;36.65;;;18.33;;
30818;SDS011;17546;42.674;23.284;2022-12-18T08:18:23;35.05;;;16.45;;
30818;SDS011;17546;42.674;23.284;2022-12-18T08:20:49;38.92;;;19.25;;
30818;SDS011;17546;42.674;23.284;2022-12-18T08:23:14;39.33;;;20.15;;
30818;SDS011;17546;42.674;23.284;2022-12-18T08:25:40;40.78;;;19.35;;
30818;SDS011;17546;42.674;23.284;2022-12-18T08:28:05;39.63;;;19.85;;
30818;SDS011;17546;42.674;23.284;2022-12-18T08:30:30;41.42;;;19.50;;
30818;SDS011;17546;42.674;23.284;2022-12-18T08:32:56;35.75;;;17.65;;
30818;SDS011;17546;42.674;23.284;2022-12-18T08:35:21;43.58;;;20.80;;
30818;SDS011;17546;42.674;23.284;2022-12-18T08:37:47;44.33;;;19.63;;
30818;SDS011;17546;42.674;23.284;2022-12-18T08:40:12;41.60;;;20.45;;
30818;SDS011;17546;42.674;23.284;2022-12-18T08:42:38;45.00;;;21.30;;
30818;SDS011;17546;42.674;23.284;2022-12-18T08:45:22;42.13;;;19.80;;
30818;SDS011;17546;42.674;23.284;2022-12-18T08:47:47;39.63;;;19.60;;
30818;SDS011;17546;42.674;23.284;2022-12-18T08:50:13;40.53;;;20.35;;
30818;SDS011;17546;42.674;23.284;2022-12-18T08:52:38;42.30;;;20.60;;
30818;SDS011;17546;42.674;23.284;2022-12-18T08:55:03;37.80;;;18.95;;
30818;SDS011;17546;42.674;23.284;2022-12-18T08:57:29;42.15;;;19.38;;
30818;SDS011;17546;42.674;23.284;2022-12-18T08:59:55;40.97;;;19.48;;
30818;SDS011;17546;42.674;23.284;2022-12-18T09:02:20;37.75;;;18.27;;
30818;SDS011;17546;42.674;23.284;2022-12-18T09:04:49;43.63;;;20.17;;
30818;SDS011;17546;42.674;23.284;2022-12-18T09:07:14;40.65;;;20.05;;
30818;SDS011;17546;42.674;23.284;2022-12-18T09:09:39;41.97;;;19.92;;
30818;SDS011;17546;42.674;23.284;2022-12-18T09:12:05;40.08;;;18.05;;
30818;SDS011;17546;42.674;23.284;2022-12-18T09:14:31;42.70;;;20.63;;
30818;SDS011;17546;42.674;23.284;2022-12-18T09:16:57;42.08;;;21.05;;
30818;SDS011;17546;42.674;23.284;2022-12-18T09:19:22;40.08;;;20.67;;
30818;SDS011;17546;42.674;23.284;2022-12-18T09:21:48;39.95;;;19.20;;
30818;SDS011;17546;42.674;23.284;2022-12-18T09:24:13;40.03;;;19.27;;
30818;SDS011;17546;42.674;23.284;2022-12-18T09:26:39;39.85;;;18.88;;
30818;SDS011;17546;42.674;23.284;2022-12-18T09:29:04;40.40;;;19.10;;
30818;SDS011;17546;42.674;23.284;2022-12-18T09:31:32;37.92;;;18.55;;
30818;SDS011;17546;42.674;23.284;2022-12-18T09:33:58;33.63;;;16.58;;
30818;SDS011;17546;42.674;23.284;2022-12-18T09:36:23;33.95;;;16.80;;
30818;SDS011;17546;42.674;23.284;2022-12-18T09:38:49;38.00;;;18.33;;
30818;SDS011;17546;42.674;23.284;2022-12-18T09:43:56;37.53;;;17.98;;
30818;SDS011;17546;42.674;23.284;2022-12-18T09:46:27;37.35;;;17.35;;
30818;SDS011;17546;42.674;23.284;2022-12-18T09:48:56;47.08;;;19.58;;
30818;SDS011;17546;42.674;23.284;2022-12-18T09:53:59;37.95;;;17.73;;
30818;SDS011;17546;42.674;23.284;2022-12-18T09:56:29;39.50;;;18.67;;
30818;SDS011;17546;42.674;23.284;2022-12-18T09:59:00;35.58;;;16.23;;
30818;SDS011;17546;42.674;23.284;2022-12-18T10:01:27;33.55;;;15.60;;
30818;SDS011;17546;42.674;23.284;2022-12-18T10:03:54;29.42;;;14.82;;
30818;SDS011;17546;42.674;23.284;2022-12-18T10:06:25;33.15;;;16.02;;
30818;SDS011;17546;42.674;23.284;2022-12-18T10:12:25;32.15;;;15.80;;
30818;SDS011;17546;42.674;23.284;2022-12-18T10:14:50;32.22;;;15.98;;
30818;SDS011;17546;42.674;23.284;2022-12-18T10:20:18;33.05;;;15.23;;
30818;SDS011;17546;42.674;23.284;2022-12-18T10:26:03;32.85;;;14.73;;
30818;SDS011;17546;42.674;23.284;2022-12-18T10:28:31;30.98;;;15.27;;
30818;SDS011;17546;42.674;23.284;2022-12-18T10:30:58;33.33;;;14.85;;
30818;SDS011;17546;42.674;23.284;2022-12-18T10:33:27;30.73;;;14.43;;
30818;SDS011;17546;42.674;23.284;2022-12-18T10:35:54;36.50;;;16.83;;
30818;SDS011;17546;42.674;23.284;2022-12-18T10:38:23;29.63;;;13.20;;
30818;SDS011;17546;42.674;23.284;2022-12-18T10:40:57;35.58;;;16.80;;
30818;SDS011;17546;42.674;23.284;2022-12-18T10:43:29;36.78;;;17.70;;
30818;SDS011;17546;42.674;23.284;2022-12-18T10:46:03;35.53;;;16.75;;
30818;SDS011;17546;42.674;23.284;2022-12-18T10:48:30;34.42;;;16.13;;
30818;SDS011;17546;42.674;23.284;2022-12-18T10:50:58;34.35;;;15.73;;
30818;SDS011;17546;42.674;23.284;2022-12-18T10:53:28;34.28;;;16.17;;
30818;SDS011;17546;42.674;23.284;2022-12-18T10:55:57;36.75;;;15.88;;
30818;SDS011;17546;42.674;23.284;2022-12-18T10:58:31;35.00;;;15.77;;
30818;SDS011;17546;42.674;23.284;2022-12-18T11:08:33;32.83;;;14.23;;
30818;SDS011;17546;42.674;23.284;2022-12-18T11:10:59;35.10;;;14.57;;
30818;SDS011;17546;42.674;23.284;2022-12-18T11:13:26;29.98;;;15.02;;
30818;SDS011;17546;42.674;23.284;2022-12-18T11:15:54;32.13;;;15.07;;
30818;SDS011;17546;42.674;23.284;2022-12-18T11:18:27;34.53;;;14.10;;
30818;SDS011;17546;42.674;23.284;2022-12-18T11:23:32;30.90;;;14.48;;
30818;SDS011;17546;42.674;23.284;2022-12-18T11:25:59;38.38;;;16.17;;
30818;SDS011;17546;42.674;23.284;2022-12-18T11:28:38;32.33;;;13.57;;
30818;SDS011;17546;42.674;23.284;2022-12-18T11:31:20;31.02;;;13.65;;
30818;SDS011;17546;42.674;23.284;2022-12-18T11:36:44;30.60;;;14.38;;
30818;SDS011;17546;42.674;23.284;2022-12-18T11:39:24;33.25;;;14.40;;
30818;SDS011;17546;42.674;23.284;2022-12-18T11:42:04;28.77;;;12.93;;
30818;SDS011;17546;42.674;23.284;2022-12-18T11:44:42;25.17;;;12.27;;
30818;SDS011;17546;42.674;23.284;2022-12-18T11:49:56;25.70;;;12.23;;
30818;SDS011;17546;42.674;23.284;2022-12-18T11:52:26;27.60;;;12.65;;
30818;SDS011;17546;42.674;23.284;2022-12-18T11:54:58;34.53;;;15.48;;
30818;SDS011;17546;42.674;23.284;2022-12-18T11:57:37;30.02;;;14.43;;
30818;SDS011;17546;42.674;23.284;2022-12-18T12:00:19;33.33;;;13.43;;
30818;SDS011;17546;42.674;23.284;2022-12-18T12:11:03;32.03;;;14.57;;
30818;SDS011;17546;42.674;23.284;2022-12-18T12:14:02;31.45;;;14.40;;
30818;SDS011;17546;42.674;23.284;2022-12-18T12:22:04;31.17;;;15.63;;
30818;SDS011;17546;42.674;23.284;2022-12-18T12:24:49;35.10;;;15.65;;
30818;SDS011;17546;42.674;23.284;2022-12-18T12:30:30;34.55;;;16.48;;
30818;SDS011;17546;42.674;23.284;2022-12-18T12:33:02;32.28;;;15.95;;
30818;SDS011;17546;42.674;23.284;2022-12-18T12:38:46;35.95;;;15.82;;
30818;SDS011;17546;42.674;23.284;2022-12-18T12:41:21;35.55;;;16.52;;
30818;SDS011;17546;42.674;23.284;2022-12-18T12:44:09;33.95;;;16.92;;
30818;SDS011;17546;42.674;23.284;2022-12-18T12:46:41;34.10;;;17.00;;
30818;SDS011;17546;42.674;23.284;2022-12-18T12:49:13;37.50;;;17.75;;
30818;SDS011;17546;42.674;23.284;2022-12-18T12:51:49;31.77;;;16.42;;
30818;SDS011;17546;42.674;23.284;2022-12-18T12:54:30;38.95;;;17.85;;
30818;SDS011;17546;42.674;23.284;2022-12-18T12:57:00;38.20;;;17.65;;
30818;SDS011;17546;42.674;23.284;2022-12-18T13:04:56;33.45;;;15.07;;
30818;SDS011;17546;42.674;23.284;2022-12-18T13:13:10;33.95;;;13.98;;
30818;SDS011;17546;42.674;23.284;2022-12-18T13:15:44;35.50;;;15.93;;
30818;SDS011;17546;42.674;23.284;2022-12-18T13:18:16;36.63;;;16.38;;
30818;SDS011;17546;42.674;23.284;2022-12-18T13:20:43;32.65;;;16.20;;
30818;SDS011;17546;42.674;23.284;2022-12-18T13:25:47;35.53;;;16.00;;
30818;SDS011;17546;42.674;23.284;2022-12-18T13:28:18;30.80;;;14.93;;
30818;SDS011;17546;42.674;23.284;2022-12-18T13:31:05;33.88;;;16.85;;
30818;SDS011;17546;42.674;23.284;2022-12-18T13:33:39;34.72;;;16.95;;
30818;SDS011;17546;42.674;23.284;2022-12-18T13:41:39;38.08;;;17.55;;
30818;SDS011;17546;42.674;23.284;2022-12-18T13:46:58;33.63;;;16.30;;
30818;SDS011;17546;42.674;23.284;2022-12-18T13:52:02;37.05;;;17.25;;
30818;SDS011;17546;42.674;23.284;2022-12-18T13:54:40;39.88;;;18.05;;
30818;SDS011;17546;42.674;23.284;2022-12-18T13:59:53;35.00;;;14.90;;
30818;SDS011;17546;42.674;23.284;2022-12-18T14:02:23;30.20;;;14.80;;
30818;SDS011;17546;42.674;23.284;2022-12-18T14:04:50;29.92;;;14.65;;
30818;SDS011;17546;42.674;23.284;2022-12-18T14:07:18;35.60;;;15.15;;
30818;SDS011;17546;42.674;23.284;2022-12-18T14:09:50;38.75;;;15.82;;
30818;SDS011;17546;42.674;23.284;2022-12-18T14:12:22;28.70;;;13.75;;
30818;SDS011;17546;42.674;23.284;2022-12-18T14:17:51;28.38;;;12.95;;
30818;SDS011;17546;42.674;23.284;2022-12-18T14:20:19;32.90;;;14.10;;
30818;SDS011;17546;42.674;23.284;2022-12-18T14:22:45;31.10;;;14.10;;
30818;SDS011;17546;42.674;23.284;2022-12-18T14:33:00;29.73;;;14.27;;
30818;SDS011;17546;42.674;23.284;2022-12-18T14:35:40;32.60;;;12.75;;
30818;SDS011;17546;42.674;23.284;2022-12-18T14:38:22;28.02;;;14.00;;
30818;SDS011;17546;42.674;23.284;2022-12-18T14:40:57;32.35;;;14.30;;
30818;SDS011;17546;42.674;23.284;2022-12-18T14:43:23;39.15;;;15.23;;
30818;SDS011;17546;42.674;23.284;2022-12-18T14:45:49;32.05;;;14.43;;
30818;SDS011;17546;42.674;23.284;2022-12-18T14:48:18;31.20;;;15.60;;
30818;SDS011;17546;42.674;23.284;2022-12-18T14:50:54;30.48;;;14.75;;
30818;SDS011;17546;42.674;23.284;2022-12-18T14:53:31;31.58;;;15.50;;
30818;SDS011;17546;42.674;23.284;2022-12-18T14:56:03;27.77;;;13.23;;
30818;SDS011;17546;42.674;23.284;2022-12-18T14:58:37;29.77;;;14.48;;
30818;SDS011;17546;42.674;23.284;2022-12-18T15:01:02;29.92;;;13.82;;
30818;SDS011;17546;42.674;23.284;2022-12-18T15:03:28;34.97;;;15.23;;
30818;SDS011;17546;42.674;23.284;2022-12-18T15:05:53;34.35;;;14.48;;
30818;SDS011;17546;42.674;23.284;2022-12-18T15:08:40;69.82;;;30.45;;
30818;SDS011;17546;42.674;23.284;2022-12-18T15:11:23;38.15;;;17.73;;
30818;SDS011;17546;42.674;23.284;2022-12-18T15:13:51;32.90;;;15.25;;
30818;SDS011;17546;42.674;23.284;2022-12-18T15:16:17;29.80;;;14.23;;
30818;SDS011;17546;42.674;23.284;2022-12-18T15:18:42;28.75;;;13.75;;
30818;SDS011;17546;42.674;23.284;2022-12-18T15:21:10;25.58;;;11.98;;
30818;SDS011;17546;42.674;23.284;2022-12-18T15:26:09;24.42;;;11.32;;
30818;SDS011;17546;42.674;23.284;2022-12-18T15:28:38;25.27;;;12.35;;
30818;SDS011;17546;42.674;23.284;2022-12-18T15:33:41;27.58;;;13.10;;
30818;SDS011;17546;42.674;23.284;2022-12-18T15:36:14;26.48;;;12.65;;
30818;SDS011;17546;42.674;23.284;2022-12-18T15:38:41;34.53;;;13.77;;
30818;SDS011;17546;42.674;23.284;2022-12-18T15:41:16;35.58;;;14.13;;
30818;SDS011;17546;42.674;23.284;2022-12-18T15:43:44;26.42;;;12.60;;
30818;SDS011;17546;42.674;23.284;2022-12-18T15:46:15;32.88;;;13.13;;
30818;SDS011;17546;42.674;23.284;2022-12-18T15:48:47;25.13;;;12.20;;
30818;SDS011;17546;42.674;23.284;2022-12-18T15:53:48;27.25;;;12.77;;
30818;SDS011;17546;42.674;23.284;2022-12-18T15:56:19;30.13;;;13.55;;
30818;SDS011;17546;42.674;23.284;2022-12-18T15:59:10;31.25;;;14.10;;
30818;SDS011;17546;42.674;23.284;2022-12-18T16:01:39;33.33;;;13.07;;
30818;SDS011;17546;42.674;23.284;2022-12-18T16:04:05;27.30;;;12.98;;
30818;SDS011;17546;42.674;23.284;2022-12-18T16:06:30;25.02;;;12.15;;
30818;SDS011;17546;42.674;23.284;2022-12-18T16:08:56;29.15;;;13.23;;
30818;SDS011;17546;42.674;23.284;2022-12-18T16:11:22;33.70;;;14.25;;
30818;SDS011;17546;42.674;23.284;2022-12-18T16:14:04;34.03;;;12.82;;
30818;SDS011;17546;42.674;23.284;2022-12-18T16:16:51;31.90;;;14.02;;
30818;SDS011;17546;42.674;23.284;2022-12-18T16:19:19;32.90;;;14.32;;
30818;SDS011;17546;42.674;23.284;2022-12-18T16:21:46;29.58;;;13.63;;
30818;SDS011;17546;42.674;23.284;2022-12-18T16:24:19;35.00;;;14.93;;
30818;SDS011;17546;42.674;23.284;2022-12-18T16:26:49;28.63;;;14.15;;
30818;SDS011;17546;42.674;23.284;2022-12-18T16:29:17;28.38;;;14.35;;